createdAt,value
2019-05-17T00:01:41.054Z,46.23
2019-05-17T00:03:48.159Z,47.57
2019-05-17T00:05:56.890Z,44.67
2019-05-17T00:08:02.745Z,46.70
2019-05-17T00:10:09.750Z,45.43
2019-05-17T00:12:16.681Z,40.77
2019-05-17T00:14:23.248Z,43.70
2019-05-17T00:16:29.901Z,44.73
2019-05-17T00:18:37.013Z,42.50
2019-05-17T00:20:43.722Z,44.07
2019-05-17T00:22:50.144Z,40.37
2019-05-17T00:24:58.382Z,48.40
2019-05-17T00:27:06.822Z,37.97
2019-05-17T00:29:13.537Z,39.60
2019-05-17T00:31:20.324Z,37.00
2019-05-17T00:33:28.246Z,39.50
2019-05-17T00:35:37.355Z,36.97
2019-05-17T00:37:47.359Z,35.73
2019-05-17T00:39:56.504Z,37.13
2019-05-17T00:42:06.495Z,36.80
2019-05-17T00:44:12.256Z,36.77
2019-05-17T00:46:18.727Z,34.00
2019-05-17T00:48:26.463Z,36.40
2019-05-17T00:50:33.687Z,41.10
2019-05-17T00:52:40.813Z,35.77
2019-05-17T00:54:47.500Z,39.40
2019-05-17T00:56:56.676Z,43.20
2019-05-17T00:59:07.279Z,41.37
2019-05-17T01:01:13.368Z,40.40
2019-05-17T01:03:20.299Z,36.83
2019-05-17T01:05:27.575Z,34.93
2019-05-17T01:07:37.117Z,39.53
2019-05-17T01:09:47.712Z,37.70
2019-05-17T01:11:54.076Z,38.17
2019-05-17T01:14:02.187Z,42.30
2019-05-17T01:16:08.965Z,41.80
2019-05-17T01:18:16.271Z,37.87
2019-05-17T01:20:24.962Z,41.37
2019-05-17T01:22:31.628Z,40.00
2019-05-17T01:24:38.390Z,39.33
2019-05-17T01:26:46.884Z,38.37
2019-05-17T01:28:53.474Z,42.03
2019-05-17T01:31:00.159Z,42.20
2019-05-17T01:33:07.225Z,41.10
2019-05-17T01:35:16.512Z,39.80
2019-05-17T01:37:23.635Z,38.30
2019-05-17T01:39:30.078Z,35.00
2019-05-17T01:41:37.268Z,40.70
2019-05-17T01:43:44.064Z,41.20
2019-05-17T01:45:50.718Z,39.43
2019-05-17T01:47:57.290Z,40.70
2019-05-17T01:50:06.716Z,38.70
2019-05-17T01:52:16.629Z,36.50
2019-05-17T01:54:23.846Z,35.20
2019-05-17T01:56:30.555Z,35.20
2019-05-17T01:58:37.123Z,37.90
2019-05-17T02:00:46.500Z,39.23
2019-05-17T02:02:57.730Z,35.33
2019-05-17T02:05:06.467Z,35.80
2019-05-17T02:07:13.405Z,34.93
2019-05-17T02:09:34.978Z,36.60
2019-05-17T02:11:31.463Z,34.47
2019-05-17T02:13:38.030Z,36.87
2019-05-17T02:15:47.027Z,38.50
2019-05-17T02:17:53.666Z,35.07
2019-05-17T02:20:01.260Z,40.33
2019-05-17T02:22:08.959Z,37.83
2019-05-17T02:24:17.101Z,39.00
2019-05-17T02:26:23.831Z,36.90
2019-05-17T02:28:32.130Z,41.13
2019-05-17T02:30:39.058Z,35.53
2019-05-17T02:32:47.920Z,38.33
2019-05-17T02:34:59.159Z,36.57
2019-05-17T02:37:05.819Z,36.90
2019-05-17T02:39:15.781Z,37.43
2019-05-17T02:41:23.927Z,35.70
2019-05-17T02:43:33.380Z,36.17
2019-05-17T02:45:43.410Z,37.83
2019-05-17T02:47:53.474Z,38.50
2019-05-17T02:49:59.057Z,39.30
2019-05-17T02:52:07.679Z,36.63
2019-05-17T02:54:14.411Z,37.80
2019-05-17T02:56:23.079Z,37.97
2019-05-17T02:58:32.970Z,35.73
2019-05-17T03:00:39.028Z,41.60
2019-05-17T03:02:46.879Z,38.00
2019-05-17T03:04:53.650Z,37.97
2019-05-17T03:07:03.470Z,37.67
2019-05-17T03:09:12.282Z,33.53
2019-05-17T03:11:17.908Z,37.43
2019-05-17T03:13:26.461Z,37.77
2019-05-17T03:15:33.065Z,41.13
2019-05-17T03:17:42.936Z,36.60
2019-05-17T03:19:48.015Z,37.13
2019-05-17T03:21:54.596Z,36.43
2019-05-17T03:24:03.363Z,38.30
2019-05-17T03:26:13.056Z,43.70
2019-05-17T03:28:23.711Z,36.40
2019-05-17T03:30:36.726Z,40.30
2019-05-17T03:32:46.841Z,41.67
2019-05-17T03:34:56.149Z,43.60
2019-05-17T03:37:05.488Z,39.23
2019-05-17T03:39:12.795Z,39.90
2019-05-17T03:41:23.707Z,34.97
2019-05-17T03:43:26.146Z,38.07
2019-05-17T03:45:35.933Z,36.93
2019-05-17T03:47:44.326Z,37.13
2019-05-17T03:49:53.134Z,39.80
2019-05-17T03:52:18.095Z,36.30
2019-05-17T03:54:24.903Z,34.00
2019-05-17T03:56:33.053Z,37.23
2019-05-17T03:58:43.315Z,37.00
2019-05-17T04:00:53.137Z,40.33
2019-05-17T04:03:02.679Z,34.77
2019-05-17T04:05:08.946Z,34.80
2019-05-17T04:07:15.818Z,39.03
2019-05-17T04:09:22.685Z,36.23
2019-05-17T04:11:32.898Z,36.90
2019-05-17T04:13:38.088Z,35.10
2019-05-17T04:15:44.816Z,36.37
2019-05-17T04:17:55.688Z,37.77
2019-05-17T04:20:03.685Z,37.47
2019-05-17T04:22:13.437Z,33.47
2019-05-17T04:24:19.032Z,32.73
2019-05-17T04:26:26.232Z,35.83
2019-05-17T04:28:34.455Z,40.83
2019-05-17T04:30:43.249Z,35.20
2019-05-17T04:32:52.707Z,37.77
2019-05-17T04:34:58.390Z,37.07
2019-05-17T04:37:05.630Z,37.60
2019-05-17T04:39:15.272Z,36.30
2019-05-17T04:41:39.540Z,40.50
2019-05-17T04:43:33.195Z,35.57
2019-05-17T04:45:38.607Z,36.13
2019-05-17T04:47:46.815Z,35.63
2019-05-17T04:49:53.972Z,36.00
2019-05-17T04:52:03.535Z,36.70
2019-05-17T04:54:13.671Z,39.37
2019-05-17T04:56:22.678Z,43.17
2019-05-17T04:58:28.680Z,40.87
2019-05-17T05:00:36.733Z,42.17
2019-05-17T05:02:44.277Z,38.43
2019-05-17T05:04:53.597Z,39.87
2019-05-17T05:07:02.914Z,37.13
2019-05-17T05:09:12.635Z,40.03
2019-05-17T05:11:17.090Z,36.90
2019-05-17T05:13:23.709Z,38.20
2019-05-17T05:15:44.609Z,40.60
2019-05-17T05:17:52.727Z,46.80
2019-05-17T05:20:02.945Z,37.07
2019-05-17T05:22:09.600Z,43.47
2019-05-17T05:24:16.237Z,38.67
2019-05-17T05:26:22.942Z,39.80
2019-05-17T05:28:31.749Z,45.17
2019-05-17T05:30:38.759Z,39.97
2019-05-17T05:32:45.580Z,41.77
2019-05-17T05:34:52.075Z,43.93
2019-05-17T05:36:58.740Z,41.23
2019-05-17T05:39:07.022Z,46.60
2019-05-17T05:41:15.499Z,41.37
2019-05-17T05:43:22.588Z,36.57
2019-05-17T05:45:29.449Z,35.43
2019-05-17T05:47:37.860Z,35.07
2019-05-17T05:49:44.591Z,35.53
2019-05-17T05:52:02.419Z,36.40
2019-05-17T05:54:09.440Z,36.13
2019-05-17T05:56:16.089Z,34.70
2019-05-17T05:58:23.903Z,33.57
2019-05-17T06:00:33.059Z,31.57
2019-05-17T06:02:41.940Z,36.90
2019-05-17T06:04:51.693Z,35.80
2019-05-17T06:06:59.083Z,29.43
2019-05-17T06:09:08.358Z,36.40
2019-05-17T06:11:16.389Z,30.47
2019-05-17T06:13:24.630Z,33.97
2019-05-17T06:15:32.073Z,40.97
2019-05-17T06:17:38.991Z,38.93
2019-05-17T06:19:47.399Z,40.80
2019-05-17T06:21:55.787Z,38.00
2019-05-17T06:24:02.698Z,44.13
2019-05-17T06:26:12.166Z,43.13
2019-05-17T06:28:22.270Z,46.17
2019-05-17T06:30:28.487Z,55.20
2019-05-17T06:32:35.013Z,50.97
2019-05-17T06:34:42.237Z,40.07
2019-05-17T06:36:49.532Z,46.77
2019-05-17T06:38:57.657Z,40.43
2019-05-17T06:41:04.846Z,27.50
2019-05-17T06:43:12.909Z,45.43
2019-05-17T06:45:22.105Z,36.97
2019-05-17T06:47:29.294Z,33.43
2019-05-17T06:49:35.837Z,26.93
2019-05-17T06:51:42.989Z,24.07
2019-05-17T06:53:49.535Z,25.00
2019-05-17T06:55:56.219Z,23.23
2019-05-17T06:58:02.998Z,28.77
2019-05-17T07:00:15.638Z,29.33
2019-05-17T07:02:19.776Z,24.70
2019-05-17T07:04:29.970Z,19.57
2019-05-17T07:06:36.852Z,20.70
2019-05-17T07:08:43.633Z,23.57
2019-05-17T07:10:50.585Z,24.60
2019-05-17T07:12:59.584Z,27.50
2019-05-17T07:15:07.025Z,26.77
2019-05-17T07:17:13.370Z,27.77
2019-05-17T07:19:20.274Z,30.67
2019-05-17T07:21:26.997Z,28.43
2019-05-17T07:23:33.691Z,32.20
2019-05-17T07:25:40.503Z,33.80
2019-05-17T07:27:50.416Z,28.40
2019-05-17T07:29:59.234Z,30.53
2019-05-17T07:32:05.992Z,30.27
2019-05-17T07:34:12.998Z,25.53
2019-05-17T07:36:19.897Z,31.23
2019-05-17T07:38:26.817Z,31.37
2019-05-17T07:40:33.630Z,30.73
2019-05-17T07:42:41.971Z,28.50
2019-05-17T07:44:49.699Z,33.83
2019-05-17T07:46:57.617Z,31.87
2019-05-17T07:49:05.308Z,30.37
2019-05-17T07:51:14.037Z,31.10
2019-05-17T07:53:21.167Z,25.53
2019-05-17T07:55:30.158Z,27.10
2019-05-17T07:57:37.717Z,25.13
2019-05-17T07:59:46.328Z,25.27
2019-05-17T08:01:52.918Z,24.03
2019-05-17T08:04:00.689Z,24.43
2019-05-17T08:06:07.578Z,26.20
2019-05-17T08:08:14.650Z,25.30
2019-05-17T08:10:21.778Z,26.97
2019-05-17T08:12:30.424Z,23.80
2019-05-17T08:14:40.064Z,23.43
2019-05-17T08:16:46.603Z,22.53
2019-05-17T08:18:53.305Z,19.53
2019-05-17T08:21:00.057Z,15.90
2019-05-17T08:23:06.903Z,15.97
2019-05-17T08:25:13.878Z,15.03
2019-05-17T08:27:23.479Z,18.43
2019-05-17T08:29:30.459Z,9.33
2019-05-17T08:31:37.490Z,12.07
2019-05-17T08:33:44.402Z,13.77
2019-05-17T08:35:51.090Z,15.67
2019-05-17T08:38:00.338Z,15.07
2019-05-17T08:40:10.510Z,18.23
2019-05-17T08:42:17.181Z,15.07
2019-05-17T08:44:23.811Z,17.70
2019-05-17T08:46:30.810Z,16.57
2019-05-17T08:48:37.442Z,16.17
2019-05-17T08:50:44.027Z,14.63
2019-05-17T08:52:50.602Z,16.67
2019-05-17T08:55:00.332Z,19.00
2019-05-17T08:57:09.465Z,17.43
2019-05-17T08:59:15.372Z,15.43
2019-05-17T09:01:22.011Z,17.73
2019-05-17T09:03:30.351Z,16.13
2019-05-17T09:05:37.443Z,17.53
2019-05-17T09:07:44.303Z,19.90
2019-05-17T09:09:50.810Z,21.93
2019-05-17T09:11:59.523Z,21.27
2019-05-17T09:14:05.996Z,20.10
2019-05-17T09:16:12.373Z,19.17
2019-05-17T09:18:20.621Z,31.23
2019-05-17T09:20:29.587Z,22.03
2019-05-17T09:22:36.637Z,21.27
2019-05-17T09:24:44.016Z,24.07
2019-05-17T09:26:50.850Z,25.33
2019-05-17T09:28:57.442Z,23.40
2019-05-17T09:31:04.153Z,21.53
2019-05-17T09:33:11.546Z,23.27
2019-05-17T09:35:20.550Z,20.17
2019-05-17T09:37:26.576Z,20.83
2019-05-17T09:39:34.622Z,19.97
2019-05-17T09:41:41.441Z,21.17
2019-05-17T09:43:49.667Z,21.07
2019-05-17T09:45:56.582Z,17.93
2019-05-17T09:48:03.586Z,18.97
2019-05-17T09:50:20.210Z,18.57
2019-05-17T09:52:29.336Z,18.50
2019-05-17T09:54:42.417Z,18.93
2019-05-17T09:56:49.726Z,19.17
2019-05-17T09:59:01.043Z,18.10
2019-05-17T10:01:09.567Z,17.17
2019-05-17T10:03:36.729Z,17.97
2019-05-17T10:05:43.221Z,19.40
2019-05-17T10:07:50.670Z,16.93
2019-05-17T10:09:59.720Z,18.40
2019-05-17T10:12:09.384Z,18.57
2019-05-17T10:14:27.424Z,15.57
2019-05-17T10:16:24.578Z,15.87
2019-05-17T10:18:32.554Z,15.33
2019-05-17T10:20:39.903Z,19.80
2019-05-17T10:22:50.190Z,17.13
2019-05-17T10:24:56.214Z,16.07
2019-05-17T10:27:03.304Z,15.03
2019-05-17T10:29:10.176Z,14.67
2019-05-17T10:31:19.712Z,15.63
2019-05-17T10:33:26.746Z,15.80
2019-05-17T10:35:33.901Z,15.17
2019-05-17T10:37:41.229Z,11.47
2019-05-17T10:39:50.265Z,14.00
2019-05-17T10:41:56.481Z,16.63
2019-05-17T10:44:03.037Z,15.43
2019-05-17T10:46:10.623Z,14.00
2019-05-17T10:48:17.557Z,13.87
2019-05-17T10:50:24.486Z,12.47
2019-05-17T10:52:31.364Z,14.63
2019-05-17T10:54:40.207Z,12.23
2019-05-17T10:56:47.358Z,10.37
2019-05-17T10:58:55.727Z,10.73
2019-05-17T11:01:03.795Z,13.07
2019-05-17T11:03:12.104Z,12.13
2019-05-17T11:05:20.126Z,11.47
2019-05-17T11:07:27.470Z,11.07
2019-05-17T11:09:33.918Z,12.70
2019-05-17T11:11:40.766Z,10.70
2019-05-17T11:13:47.628Z,11.93
2019-05-17T11:15:54.664Z,13.97
2019-05-17T11:18:01.948Z,12.13
2019-05-17T11:20:10.319Z,10.70
2019-05-17T11:22:16.990Z,14.03
2019-05-17T11:24:23.564Z,10.77
2019-05-17T11:26:30.771Z,14.63
2019-05-17T11:28:38.664Z,10.63
2019-05-17T11:30:46.871Z,10.83
2019-05-17T11:32:53.546Z,9.57
2019-05-17T11:35:00.119Z,9.93
2019-05-17T11:37:08.313Z,12.07
2019-05-17T11:39:16.017Z,9.33
2019-05-17T11:41:24.018Z,8.97
2019-05-17T11:43:31.880Z,11.27
2019-05-17T11:45:39.845Z,10.27
2019-05-17T11:47:46.313Z,10.17
2019-05-17T11:49:53.786Z,12.70
2019-05-17T11:52:00.640Z,10.13
2019-05-17T11:54:07.648Z,11.30
2019-05-17T11:56:18.479Z,11.47
2019-05-17T11:58:27.056Z,10.90
2019-05-17T12:00:33.935Z,12.33
2019-05-17T12:02:40.461Z,12.63
2019-05-17T12:04:48.683Z,13.20
2019-05-17T12:06:55.442Z,11.77
2019-05-17T12:09:03.735Z,13.93
2019-05-17T12:11:14.636Z,11.30
2019-05-17T12:13:21.636Z,15.03
2019-05-17T12:15:43.595Z,14.40
2019-05-17T12:17:37.261Z,12.77
2019-05-17T12:19:43.949Z,27.83
2019-05-17T12:21:50.286Z,12.73
2019-05-17T12:23:57.156Z,13.10
2019-05-17T12:26:03.825Z,14.47
2019-05-17T12:28:11.330Z,14.53
2019-05-17T12:30:21.352Z,13.27
2019-05-17T12:34:39.361Z,14.90
2019-05-17T12:36:46.597Z,14.47
2019-05-17T12:38:55.184Z,15.27
2019-05-17T12:41:03.147Z,16.83
2019-05-17T12:43:10.255Z,11.40
2019-05-17T12:45:17.896Z,14.67
2019-05-17T12:47:24.696Z,13.60
2019-05-17T12:49:32.911Z,14.60
2019-05-17T12:51:39.595Z,16.73
2019-05-17T12:53:48.278Z,14.13
2019-05-17T12:55:54.964Z,13.30
2019-05-17T12:58:01.931Z,13.03
2019-05-17T13:00:09.583Z,13.93
2019-05-17T13:02:16.005Z,14.67
2019-05-17T13:04:23.317Z,15.77
2019-05-17T13:06:29.983Z,14.03
2019-05-17T13:08:36.841Z,14.43
2019-05-17T13:10:43.789Z,13.20
2019-05-17T13:12:50.408Z,15.73
2019-05-17T13:14:57.784Z,17.83
2019-05-17T13:17:25.184Z,15.63
2019-05-17T13:19:32.036Z,17.37
2019-05-17T13:21:38.723Z,15.53
2019-05-17T13:23:45.320Z,16.27
2019-05-17T13:25:53.550Z,15.37
2019-05-17T13:28:00.679Z,16.83
2019-05-17T13:30:10.579Z,18.57
2019-05-17T13:32:17.565Z,19.37
2019-05-17T13:34:23.975Z,19.47
2019-05-17T13:36:32.283Z,22.73
2019-05-17T13:38:42.854Z,19.33
2019-05-17T13:40:51.315Z,24.30
2019-05-17T13:42:57.949Z,21.33
2019-05-17T13:45:06.187Z,18.63
2019-05-17T13:47:12.918Z,24.10
2019-05-17T13:49:20.599Z,22.00
2019-05-17T13:51:27.098Z,19.33
2019-05-17T13:53:33.867Z,21.17
2019-05-17T13:55:40.982Z,19.87
2019-05-17T13:57:49.337Z,21.80
2019-05-17T13:59:57.670Z,21.90
2019-05-17T14:02:04.632Z,24.13
2019-05-17T14:04:13.025Z,22.83
2019-05-17T14:06:19.791Z,27.33
2019-05-17T14:08:26.578Z,23.00
2019-05-17T14:10:33.139Z,25.40
2019-05-17T14:12:41.977Z,32.00
2019-05-17T14:14:49.984Z,33.73
2019-05-17T14:16:56.532Z,28.33
2019-05-17T14:19:03.171Z,28.60
2019-05-17T14:21:09.687Z,25.13
2019-05-17T14:23:16.342Z,22.07
2019-05-17T14:25:23.615Z,25.87
2019-05-17T14:27:32.120Z,23.70
2019-05-17T14:29:38.912Z,25.17
2019-05-17T14:31:45.692Z,24.87
2019-05-17T14:33:52.666Z,20.90
2019-05-17T14:36:00.462Z,20.40
2019-05-17T14:38:07.328Z,22.33
2019-05-17T14:40:14.147Z,24.73
2019-05-17T14:42:20.934Z,21.20
2019-05-17T14:44:30.264Z,22.50
2019-05-17T14:46:37.436Z,22.13
2019-05-17T14:48:46.722Z,21.70
2019-05-17T14:50:53.478Z,23.80
2019-05-17T14:53:00.239Z,22.33
2019-05-17T14:55:07.349Z,22.70
2019-05-17T14:57:14.259Z,23.50
2019-05-17T14:59:20.759Z,26.63
2019-05-17T15:01:28.481Z,27.10
2019-05-17T15:03:35.151Z,26.47
2019-05-17T15:05:42.890Z,25.33
2019-05-17T15:07:49.589Z,24.83
2019-05-17T15:09:56.369Z,27.53
2019-05-17T15:12:03.453Z,27.77
2019-05-17T15:14:10.223Z,25.43
2019-05-17T15:16:18.531Z,28.73
2019-05-17T15:18:25.627Z,27.67
2019-05-17T15:20:32.194Z,29.33
2019-05-17T15:22:39.380Z,28.27
2019-05-17T15:24:48.953Z,25.63
2019-05-17T15:27:05.200Z,25.73
2019-05-17T15:29:03.930Z,25.20
2019-05-17T15:31:12.021Z,26.83
2019-05-17T15:33:19.486Z,27.17
2019-05-17T15:35:27.817Z,27.73
2019-05-17T15:37:36.028Z,29.27
2019-05-17T15:39:42.759Z,31.77
2019-05-17T15:41:51.089Z,28.17
2019-05-17T15:43:59.521Z,31.87
2019-05-17T15:46:06.578Z,26.10
2019-05-17T15:48:13.309Z,27.93
2019-05-17T15:50:20.170Z,29.93
2019-05-17T15:52:27.102Z,28.77
2019-05-17T15:54:35.625Z,26.30
2019-05-17T15:56:42.731Z,28.70
2019-05-17T15:58:49.427Z,32.20
2019-05-17T16:00:56.091Z,29.83
2019-05-17T16:03:02.716Z,29.43
2019-05-17T16:05:09.828Z,29.20
2019-05-17T16:07:16.705Z,30.03
2019-05-17T16:09:45.042Z,29.47
2019-05-17T16:11:51.826Z,29.40
2019-05-17T16:13:58.430Z,30.93
2019-05-17T16:16:05.628Z,29.23
2019-05-17T16:18:12.726Z,29.50
2019-05-17T16:20:19.461Z,30.47
2019-05-17T16:22:26.613Z,32.37
2019-05-17T16:24:33.363Z,29.47
2019-05-17T16:26:40.102Z,28.00
2019-05-17T16:28:46.918Z,26.40
2019-05-17T16:30:53.660Z,29.37
2019-05-17T16:33:00.670Z,28.77
2019-05-17T16:35:07.686Z,26.40
2019-05-17T16:37:15.686Z,23.32
2019-05-17T16:39:22.302Z,27.33
2019-05-17T16:41:30.402Z,27.30
2019-05-17T16:43:37.344Z,26.12
2019-05-17T16:45:44.206Z,25.72
2019-05-17T16:47:51.104Z,24.57
2019-05-17T16:49:58.720Z,26.70
2019-05-17T16:52:05.939Z,24.77
2019-05-17T16:54:12.984Z,22.55
2019-05-17T16:56:19.678Z,27.13
2019-05-17T16:58:26.955Z,23.83
2019-05-17T17:00:43.385Z,25.95
2019-05-17T17:02:50.376Z,24.77
2019-05-17T17:04:57.176Z,25.10
2019-05-17T17:07:03.697Z,27.27
2019-05-17T17:09:11.711Z,24.30
2019-05-17T17:11:19.757Z,28.13
2019-05-17T17:13:33.067Z,26.70
2019-05-17T17:15:35.101Z,28.20
2019-05-17T17:17:41.557Z,27.83
2019-05-17T17:19:49.918Z,31.07
2019-05-17T17:21:57.714Z,29.60
2019-05-17T17:24:05.713Z,26.93
2019-05-17T17:26:12.460Z,28.23
2019-05-17T17:28:21.844Z,33.20
2019-05-17T17:30:29.341Z,26.93
2019-05-17T17:32:36.141Z,29.80
2019-05-17T17:34:43.084Z,30.33
2019-05-17T17:36:51.016Z,29.53
2019-05-17T17:38:57.542Z,32.33
2019-05-17T17:41:06.114Z,32.57
2019-05-17T17:43:16.009Z,31.80
2019-05-17T17:45:26.651Z,28.83
2019-05-17T17:47:33.499Z,36.17
2019-05-17T17:49:41.611Z,31.03
2019-05-17T17:51:49.931Z,31.90
2019-05-17T17:53:56.780Z,32.00
2019-05-17T17:56:03.497Z,31.13
2019-05-17T17:58:10.210Z,27.03
2019-05-17T18:00:20.786Z,29.70
2019-05-17T18:02:27.813Z,30.90
2019-05-17T18:04:34.876Z,31.03
2019-05-17T18:06:41.725Z,31.47
2019-05-17T18:08:48.557Z,31.03
2019-05-17T18:10:55.168Z,31.77
2019-05-17T18:13:03.884Z,33.83
2019-05-17T18:15:13.312Z,36.53
2019-05-17T18:17:20.345Z,32.00
2019-05-17T18:19:27.186Z,35.03
2019-05-17T18:21:34.026Z,38.80
2019-05-17T18:23:40.720Z,34.60
2019-05-17T18:25:50.410Z,36.03
2019-05-17T18:27:57.533Z,36.00
2019-05-17T18:30:07.027Z,36.30
2019-05-17T18:32:13.958Z,40.87
2019-05-17T18:34:20.656Z,40.23
2019-05-17T18:36:27.581Z,44.90
2019-05-17T18:38:36.899Z,42.53
2019-05-17T18:40:43.495Z,44.37
2019-05-17T18:42:51.618Z,38.93
2019-05-17T18:44:58.282Z,39.47
2019-05-17T18:47:05.000Z,37.20
2019-05-17T18:49:13.263Z,37.53
2019-05-17T18:51:24.376Z,40.03
2019-05-17T18:53:31.017Z,47.80
2019-05-17T18:55:37.917Z,54.17
2019-05-17T18:57:47.513Z,49.77
2019-05-17T18:59:54.245Z,45.07
2019-05-17T19:02:00.936Z,43.63
2019-05-17T19:04:09.126Z,45.97
2019-05-17T19:06:15.654Z,48.00
2019-05-17T19:08:23.929Z,43.67
2019-05-17T19:10:30.921Z,44.10
2019-05-17T19:12:37.656Z,39.97
2019-05-17T19:14:45.334Z,43.03
2019-05-17T19:16:53.345Z,42.47
2019-05-17T19:19:06.419Z,40.20
2019-05-17T19:21:12.718Z,38.53
2019-05-17T19:23:20.094Z,46.90
2019-05-17T19:25:27.701Z,39.50
2019-05-17T19:27:35.421Z,41.77
2019-05-17T19:29:43.390Z,44.87
2019-05-17T19:31:51.608Z,39.97
2019-05-17T19:33:58.598Z,40.80
2019-05-17T19:36:05.448Z,40.30
2019-05-17T19:38:13.838Z,40.60
2019-05-17T19:40:21.206Z,41.80
2019-05-17T19:42:28.716Z,40.63
2019-05-17T19:44:36.713Z,38.97
2019-05-17T19:46:43.971Z,41.67
2019-05-17T19:48:51.119Z,40.57
2019-05-17T19:50:58.029Z,42.10
2019-05-17T19:53:05.086Z,41.00
2019-05-17T19:55:13.318Z,46.00
2019-05-17T19:57:21.010Z,42.50
2019-05-17T19:59:27.746Z,42.23
2019-05-17T20:01:34.621Z,45.20
2019-05-17T20:03:41.307Z,48.17
2019-05-17T20:05:48.381Z,47.43
2019-05-17T20:07:55.475Z,46.10
2019-05-17T20:10:02.432Z,44.97
2019-05-17T20:12:10.328Z,51.53
2019-05-17T20:14:17.320Z,49.40
2019-05-17T20:16:24.336Z,48.87
2019-05-17T20:18:31.076Z,43.77
2019-05-17T20:20:37.816Z,49.37
2019-05-17T20:22:45.060Z,44.00
2019-05-17T20:24:52.798Z,45.13
2019-05-17T20:27:00.689Z,41.83
2019-05-17T20:29:11.301Z,45.53
2019-05-17T20:31:18.935Z,43.43
2019-05-17T20:33:26.939Z,45.40
2019-05-17T20:35:34.892Z,48.27
2019-05-17T20:37:41.936Z,46.80
2019-05-17T20:39:48.921Z,47.60
2019-05-17T20:41:57.513Z,43.10
2019-05-17T20:44:04.757Z,45.43
2019-05-17T20:46:12.434Z,48.67
2019-05-17T20:50:32.808Z,43.83
2019-05-17T20:52:39.389Z,47.23
2019-05-17T20:54:46.435Z,49.90
2019-05-17T20:56:53.199Z,47.17
2019-05-17T20:59:00.052Z,49.90
2019-05-17T21:01:07.079Z,51.77
2019-05-17T21:03:15.349Z,46.00
2019-05-17T21:05:22.077Z,53.03
2019-05-17T21:07:30.308Z,48.30
2019-05-17T21:09:38.936Z,48.00
2019-05-17T21:11:45.823Z,48.70
2019-05-17T21:13:52.335Z,48.17
2019-05-17T21:15:58.873Z,48.27
2019-05-17T21:18:05.480Z,52.27
2019-05-17T21:20:14.227Z,44.03
2019-05-17T21:22:21.293Z,49.33
2019-05-17T21:24:28.865Z,51.63
2019-05-17T21:26:35.549Z,46.50
2019-05-17T21:28:42.741Z,45.50
2019-05-17T21:30:49.722Z,46.87
2019-05-17T21:32:56.587Z,47.13
2019-05-17T21:35:03.340Z,46.53
2019-05-17T21:37:11.423Z,44.57
2019-05-17T21:39:19.123Z,48.63
2019-05-17T21:41:25.642Z,50.27
2019-05-17T21:43:32.365Z,45.43
2019-05-17T21:45:39.005Z,46.63
2019-05-17T21:47:46.903Z,44.53
2019-05-17T21:49:53.326Z,43.87
2019-05-17T21:52:01.596Z,43.87
2019-05-17T21:54:08.481Z,45.23
2019-05-17T21:56:15.267Z,43.13
2019-05-17T21:58:21.961Z,45.83
2019-05-17T22:00:52.598Z,45.73
2019-05-17T22:03:00.185Z,43.07
2019-05-17T22:05:09.905Z,48.30
2019-05-17T22:07:17.700Z,45.43
2019-05-17T22:09:24.397Z,42.13
2019-05-17T22:11:31.495Z,46.10
2019-05-17T22:13:38.237Z,44.60
2019-05-17T22:15:44.792Z,41.20
2019-05-17T22:17:54.638Z,43.53
2019-05-17T22:20:01.707Z,43.97
2019-05-17T22:22:08.543Z,44.40
2019-05-17T22:24:15.376Z,43.33
2019-05-17T22:26:21.862Z,45.13
2019-05-17T22:28:30.559Z,42.20
2019-05-17T22:30:37.889Z,41.03
2019-05-17T22:32:44.785Z,42.67
2019-05-17T22:34:53.609Z,38.30
2019-05-17T22:37:01.651Z,44.13
2019-05-17T22:39:09.314Z,43.03
2019-05-17T22:41:16.050Z,43.57
2019-05-17T22:43:22.733Z,42.67
2019-05-17T22:45:30.818Z,42.77
2019-05-17T22:47:37.520Z,43.57
2019-05-17T22:49:45.945Z,39.90
2019-05-17T22:51:52.574Z,44.90
2019-05-17T22:54:00.531Z,42.30
2019-05-17T22:56:06.888Z,47.07
2019-05-17T22:58:15.082Z,41.63
2019-05-17T23:00:22.196Z,42.13
2019-05-17T23:02:28.793Z,47.77
2019-05-17T23:04:35.503Z,44.67
2019-05-17T23:06:42.289Z,48.60
2019-05-17T23:08:49.355Z,45.00
2019-05-17T23:10:55.878Z,47.20
2019-05-17T23:13:06.173Z,46.90
2019-05-17T23:15:15.106Z,42.43
2019-05-17T23:17:21.759Z,44.40
2019-05-17T23:19:28.740Z,41.97
2019-05-17T23:21:35.794Z,44.23
2019-05-17T23:23:46.111Z,47.83
2019-05-17T23:25:52.748Z,46.57
2019-05-17T23:27:59.357Z,42.43
2019-05-17T23:30:07.364Z,44.50
2019-05-17T23:32:14.685Z,44.50
2019-05-17T23:34:21.273Z,42.47
2019-05-17T23:36:28.357Z,48.43
2019-05-17T23:38:35.845Z,44.70
2019-05-17T23:40:42.401Z,43.07
2019-05-17T23:42:49.376Z,45.67
2019-05-17T23:44:55.926Z,45.90
2019-05-17T23:47:07.153Z,41.93
2019-05-17T23:49:13.519Z,43.00
2019-05-17T23:51:20.017Z,44.83
2019-05-17T23:53:27.032Z,45.63
2019-05-17T23:55:34.580Z,50.00
2019-05-17T23:57:41.294Z,48.67
2019-05-17T23:59:48.984Z,51.67
